Time;durP1;ratioP1;P1;durP2;ratioP2;P2;SDS_P1;SDS_P2;PMS_P1;PMS_P2;Temp;Humidity;BMP_temperature;BMP_pressure;BME280_temperature;BME280_humidity;BME280_pressure;Samples;Min_cycle;Max_cycle;Signal;HPM_P1;HPM_P2
2024/02/24 00:01:11;;;;;;;;;;;;;;;;;;5021302;28;19921;-68
2024/02/24 00:03:36;;;;;;;;;;;;;;;;;;5021470;28;19976;-68
2024/02/24 00:06:01;;;;;;;;;;;;;;;;;;5022838;28;20350;-68
2024/02/24 00:08:27;;;;;;;;;;;;;;;;;;5017688;28;19937;-68
2024/02/24 00:10:52;;;;;;;;;;;;;;;;;;5029214;28;19921;-68
2024/02/24 00:13:18;;;;;;;;;;;;;;;;;;5026754;28;20447;-68
2024/02/24 00:15:43;;;;;;;;;;;;;;;;;;5021610;28;20204;-68
2024/02/24 00:18:09;;;;;;;;;;;;;;;;;;5022010;28;19998;-68
2024/02/24 00:20:34;;;;;;;;;;;;;;;;;;5019871;28;19982;-68
2024/02/24 00:23:00;;;;;;;;;;;;;;;;;;5022498;28;19925;-68
2024/02/24 00:25:28;;;;;;;;;;;;;;;;;;5023647;28;19932;-66
2024/02/24 00:27:53;;;;;;;;;;;;;;;;;;5021738;28;19933;-67
2024/02/24 00:30:19;;;;;;;;;;;;;;;;;;5023823;28;19921;-68
2024/02/24 00:32:44;;;;;;;;;;;;;;;;;;5041050;28;19925;-68
2024/02/24 00:35:11;;;;;;;;;;;;;;;;;;5040462;28;19921;-68
2024/02/24 00:37:36;;;;;;;;;;;;;;;;;;5021847;28;20465;-68
2024/02/24 00:40:02;;;;;;;;;;;;;;;;;;5023511;28;20000;-68
2024/02/24 00:42:28;;;;;;;;;;;;;;;;;;5021872;28;20382;-67
2024/02/24 00:44:54;;;;;;;;;;;;;;;;;;5022893;28;20033;-67
2024/02/24 00:47:22;;;;;;;;;;;;;;;;;;5025489;28;20015;-67
2024/02/24 00:49:47;;;;;;;;;;;;;;;;;;5024950;28;19932;-68
2024/02/24 00:52:13;;;;;;;;;;;;;;;;;;5016185;28;19921;-68
2024/02/24 00:54:38;;;;;;;;;;;;;;;;;;5016824;28;19921;-67
2024/02/24 00:57:04;;;;;;;;;;;;;;;;;;5023898;28;19917;-68
2024/02/24 00:59:29;;;;;;;;;;;;;;;;;;5025298;28;20020;-68
2024/02/24 01:01:54;;;;;;;;;;;;;;;;;;5024533;28;20043;-68
2024/02/24 01:04:20;;;;;;;;;;;;;;;;;;5023549;28;20396;-67
2024/02/24 01:06:45;;;;;;;;;;;;;;;;;;5024446;28;19928;-67
2024/02/24 01:09:11;;;;;;;;;;;;;;;;;;5019619;28;19944;-68
2024/02/24 01:11:36;;;;;;;;;;;;;;;;;;5024124;28;19921;-67
2024/02/24 01:14:03;;;;;;;;;;;;;;;;;;5039492;28;19967;-68
2024/02/24 01:16:29;;;;;;;;;;;;;;;;;;5024548;28;19918;-68
2024/02/24 01:18:54;;;;;;;;;;;;;;;;;;5024468;28;19921;-68
2024/02/24 01:21:19;;;;;;;;;;;;;;;;;;5024866;28;20004;-68
2024/02/24 01:23:45;;;;;;;;;;;;;;;;;;5039628;28;19921;-68
2024/02/24 01:26:10;;;;;;;;;;;;;;;;;;5040440;28;19917;-68
2024/02/24 01:28:36;;;;;;;;;;;;;;;;;;5024610;28;19925;-68
2024/02/24 01:31:02;;;;;;;;;;;;;;;;;;5028270;28;20008;-67
2024/02/24 01:33:28;;;;;;;;;;;;;;;;;;5022646;28;20016;-68
2024/02/24 01:35:54;;;;;;;;;;;;;;;;;;5023767;28;20017;-68
2024/02/24 01:38:22;;;;;;;;;;;;;;;;;;5021777;28;19975;-68
2024/02/24 01:40:48;;;;;;;;;;;;;;;;;;5023907;28;20348;-68
2024/02/24 01:43:13;;;;;;;;;;;;;;;;;;5024264;28;20174;-68
2024/02/24 01:45:39;;;;;;;;;;;;;;;;;;5023718;28;20004;-68
2024/02/24 01:48:04;;;;;;;;;;;;;;;;;;5023754;28;19921;-67
2024/02/24 01:50:29;;;;;;;;;;;;;;;;;;5024654;28;20505;-66
2024/02/24 01:52:55;;;;;;;;;;;;;;;;;;5022419;28;19921;-66
2024/02/24 01:55:20;;;;;;;;;;;;;;;;;;5023449;28;19929;-67
2024/02/24 01:57:46;;;;;;;;;;;;;;;;;;5024523;28;19928;-66
2024/02/24 02:00:11;;;;;;;;;;;;;;;;;;5023735;28;19925;-66
2024/02/24 02:02:36;;;;;;;;;;;;;;;;;;5023560;28;19944;-66
2024/02/24 02:05:02;;;;;;;;;;;;;;;;;;5024655;28;19975;-67
2024/02/24 02:07:27;;;;;;;;;;;;;;;;;;5044665;28;20290;-66
2024/02/24 02:09:53;;;;;;;;;;;;;;;;;;5027310;28;19921;-66
2024/02/24 02:12:18;;;;;;;;;;;;;;;;;;5027529;28;19925;-67
2024/02/24 02:14:44;;;;;;;;;;;;;;;;;;5027878;28;20448;-67
2024/02/24 02:17:09;;;;;;;;;;;;;;;;;;5026666;28;19952;-66
2024/02/24 02:19:35;;;;;;;;;;;;;;;;;;5044436;28;20016;-67
2024/02/24 02:22:00;;;;;;;;;;;;;;;;;;5026438;28;20024;-67
2024/02/24 02:24:25;;;;;;;;;;;;;;;;;;5025923;28;19918;-67
2024/02/24 02:26:51;;;;;;;;;;;;;;;;;;5027764;28;19929;-66
2024/02/24 02:29:16;;;;;;;;;;;;;;;;;;5027598;28;19925;-67
2024/02/24 02:31:42;;;;;;;;;;;;;;;;;;5026647;28;20301;-66
2024/02/24 02:34:07;;;;;;;;;;;;;;;;;;5024108;28;19921;-68
2024/02/24 02:36:32;;;;;;;;;;;;;;;;;;5026849;28;19921;-67
2024/02/24 02:38:58;;;;;;;;;;;;;;;;;;5019385;28;19925;-67
2024/02/24 02:41:23;;;;;;;;;;;;;;;;;;5027369;28;19920;-66
2024/02/24 02:43:49;;;;;;;;;;;;;;;;;;5027700;28;19917;-67
2024/02/24 02:46:14;;;;;;;;;;;;;;;;;;5026394;28;20297;-67
2024/02/24 02:48:39;;;;;;;;;;;;;;;;;;5026087;28;20372;-67
2024/02/24 02:51:05;;;;;;;;;;;;;;;;;;5026277;28;19957;-66
2024/02/24 02:53:30;;;;;;;;;;;;;;;;;;5026531;28;19917;-68
2024/02/24 02:55:56;;;;;;;;;;;;;;;;;;5027391;28;19925;-68
2024/02/24 02:58:21;;;;;;;;;;;;;;;;;;5025734;28;20361;-68
2024/02/24 03:00:47;;;;;;;;;;;;;;;;;;5027549;28;19970;-68
2024/02/24 03:03:12;;;;;;;;;;;;;;;;;;5026867;28;19921;-68
2024/02/24 03:05:37;;;;;;;;;;;;;;;;;;5026937;28;19928;-68
2024/02/24 03:08:03;;;;;;;;;;;;;;;;;;5026216;28;19928;-68
2024/02/24 03:10:29;;;;;;;;;;;;;;;;;;5026852;28;19980;-68
2024/02/24 03:12:54;;;;;;;;;;;;;;;;;;5026498;28;19924;-67
2024/02/24 03:15:20;;;;;;;;;;;;;;;;;;5026484;28;19921;-68
2024/02/24 03:17:46;;;;;;;;;;;;;;;;;;5042570;28;19975;-67
2024/02/24 03:20:12;;;;;;;;;;;;;;;;;;5026054;28;20341;-68
2024/02/24 03:22:38;;;;;;;;;;;;;;;;;;5027838;28;19928;-66
2024/02/24 03:25:05;;;;;;;;;;;;;;;;;;5027598;28;19964;-66
2024/02/24 03:27:30;;;;;;;;;;;;;;;;;;5026052;28;20145;-66
2024/02/24 03:29:55;;;;;;;;;;;;;;;;;;5025657;28;20506;-67
2024/02/24 03:32:21;;;;;;;;;;;;;;;;;;5025551;28;19957;-67
2024/02/24 03:34:46;;;;;;;;;;;;;;;;;;5026892;28;19998;-66
2024/02/24 03:37:11;;;;;;;;;;;;;;;;;;5028151;28;19972;-67
2024/02/24 03:39:36;;;;;;;;;;;;;;;;;;5026213;28;19921;-67
2024/02/24 03:42:02;;;;;;;;;;;;;;;;;;5027115;28;20004;-66
2024/02/24 03:44:27;;;;;;;;;;;;;;;;;;5025664;28;19921;-66
2024/02/24 03:46:53;;;;;;;;;;;;;;;;;;5042834;28;19921;-66
2024/02/24 03:49:18;;;;;;;;;;;;;;;;;;5042520;28;19951;-66
2024/02/24 03:51:43;;;;;;;;;;;;;;;;;;5026029;28;20385;-67
2024/02/24 03:54:08;;;;;;;;;;;;;;;;;;5027261;28;20308;-65
2024/02/24 03:56:34;;;;;;;;;;;;;;;;;;5025842;28;19933;-66
2024/02/24 03:58:59;;;;;;;;;;;;;;;;;;5035976;28;19921;-66
2024/02/24 04:01:27;;;;;;;;;;;;;;;;;;5025935;28;20298;-66
2024/02/24 04:03:52;;;;;;;;;;;;;;;;;;5026311;28;20378;-66
2024/02/24 04:06:18;;;;;;;;;;;;;;;;;;5041629;28;19927;-66
2024/02/24 04:08:43;;;;;;;;;;;;;;;;;;5042169;28;20302;-66
2024/02/24 04:11:08;;;;;;;;;;;;;;;;;;5026020;28;20087;-66
2024/02/24 04:13:33;;;;;;;;;;;;;;;;;;5025368;28;19995;-66
2024/02/24 04:15:59;;;;;;;;;;;;;;;;;;5027648;28;19928;-66
2024/02/24 04:18:24;;;;;;;;;;;;;;;;;;5024641;28;20751;-66
2024/02/24 04:20:49;;;;;;;;;;;;;;;;;;5027543;28;19921;-66
2024/02/24 04:23:14;;;;;;;;;;;;;;;;;;5026983;28;19925;-67
2024/02/24 04:25:39;;;;;;;;;;;;;;;;;;5027010;28;19970;-66
2024/02/24 04:28:04;;;;;;;;;;;;;;;;;;5025180;28;20019;-67
2024/02/24 04:30:29;;;;;;;;;;;;;;;;;;5026624;28;20083;-66
2024/02/24 04:32:56;;;;;;;;;;;;;;;;;;5025603;28;20478;-66
2024/02/24 04:35:21;;;;;;;;;;;;;;;;;;5026146;28;20309;-68
2024/02/24 04:37:46;;;;;;;;;;;;;;;;;;5026600;28;20011;-68
2024/02/24 04:40:11;;;;;;;;;;;;;;;;;;5025796;28;20441;-68
2024/02/24 04:42:37;;;;;;;;;;;;;;;;;;5026316;28;20194;-67
2024/02/24 04:45:02;;;;;;;;;;;;;;;;;;5026843;28;19987;-68
2024/02/24 04:47:28;;;;;;;;;;;;;;;;;;5026177;28;20409;-68
2024/02/24 04:49:53;;;;;;;;;;;;;;;;;;5026748;28;20024;-68
2024/02/24 04:52:18;;;;;;;;;;;;;;;;;;5025841;28;20008;-68
2024/02/24 04:54:43;;;;;;;;;;;;;;;;;;5026701;28;20285;-67
2024/02/24 04:57:08;;;;;;;;;;;;;;;;;;5026389;28;19931;-68
2024/02/24 04:59:35;;;;;;;;;;;;;;;;;;5025980;28;20348;-68
2024/02/24 05:02:00;;;;;;;;;;;;;;;;;;5026734;28;20012;-68
2024/02/24 05:04:25;;;;;;;;;;;;;;;;;;5025564;28;20017;-68
2024/02/24 05:06:50;;;;;;;;;;;;;;;;;;5024185;28;19921;-68
2024/02/24 05:09:15;;;;;;;;;;;;;;;;;;5026112;28;20340;-67
2024/02/24 05:11:40;;;;;;;;;;;;;;;;;;5026162;28;20420;-68
2024/02/24 05:14:05;;;;;;;;;;;;;;;;;;5023263;28;19921;-68
2024/02/24 05:16:32;;;;;;;;;;;;;;;;;;5026127;28;19944;-68
2024/02/24 05:18:57;;;;;;;;;;;;;;;;;;5027124;28;19921;-68
2024/02/24 05:21:23;;;;;;;;;;;;;;;;;;5026293;28;20016;-68
2024/02/24 05:23:48;;;;;;;;;;;;;;;;;;5026406;28;19923;-68
2024/02/24 05:26:13;;;;;;;;;;;;;;;;;;5026255;28;19917;-67
2024/02/24 05:28:38;;;;;;;;;;;;;;;;;;5025874;28;20012;-68
2024/02/24 05:31:03;;;;;;;;;;;;;;;;;;5026530;28;20357;-68
2024/02/24 05:33:28;;;;;;;;;;;;;;;;;;5025946;28;19927;-68
2024/02/24 05:35:53;;;;;;;;;;;;;;;;;;5026028;28;19929;-67
2024/02/24 05:38:18;;;;;;;;;;;;;;;;;;5025304;28;20429;-68
2024/02/24 05:40:43;;;;;;;;;;;;;;;;;;5028738;28;20040;-68
2024/02/24 05:43:08;;;;;;;;;;;;;;;;;;5030164;28;19924;-68
2024/02/24 05:45:34;;;;;;;;;;;;;;;;;;5030149;28;19972;-68
2024/02/24 05:48:01;;;;;;;;;;;;;;;;;;5030264;28;20003;-68
2024/02/24 05:50:26;;;;;;;;;;;;;;;;;;5029397;28;20175;-68
2024/02/24 05:52:51;;;;;;;;;;;;;;;;;;5030325;28;20012;-67
2024/02/24 05:55:16;;;;;;;;;;;;;;;;;;5030435;28;19921;-67
2024/02/24 05:57:44;;;;;;;;;;;;;;;;;;5027601;28;20370;-68
2024/02/24 06:00:11;;;;;;;;;;;;;;;;;;5029047;28;19921;-68
2024/02/24 06:02:36;;;;;;;;;;;;;;;;;;5029369;28;19921;-68
2024/02/24 06:05:01;;;;;;;;;;;;;;;;;;5029968;28;20108;-67
2024/02/24 06:07:26;;;;;;;;;;;;;;;;;;5029822;28;19944;-67
2024/02/24 06:09:51;;;;;;;;;;;;;;;;;;5028182;28;19921;-67
2024/02/24 06:12:16;;;;;;;;;;;;;;;;;;5028167;28;20035;-67
2024/02/24 06:14:41;;;;;;;;;;;;;;;;;;5029139;28;19975;-68
2024/02/24 06:17:06;;;;;;;;;;;;;;;;;;5029081;28;19968;-67
2024/02/24 06:19:31;;;;;;;;;;;;;;;;;;5028851;28;19927;-68
2024/02/24 06:21:57;;;;;;;;;;;;;;;;;;5027770;28;19929;-68
2024/02/24 06:24:22;;;;;;;;;;;;;;;;;;5028907;28;19925;-67
2024/02/24 06:26:47;;;;;;;;;;;;;;;;;;5029325;28;19917;-67
2024/02/24 06:29:15;;;;;;;;;;;;;;;;;;5029301;28;20374;-66
2024/02/24 06:31:41;;;;;;;;;;;;;;;;;;5028999;28;20451;-66
2024/02/24 06:34:06;;;;;;;;;;;;;;;;;;5028594;28;20008;-68
2024/02/24 06:36:31;;;;;;;;;;;;;;;;;;5028594;28;19921;-66
2024/02/24 06:38:56;;;;;;;;;;;;;;;;;;5027696;28;19929;-66
2024/02/24 06:41:23;;;;;;;;;;;;;;;;;;5029268;28;20370;-66
2024/02/24 06:43:48;;;;;;;;;;;;;;;;;;5029118;28;19917;-66
2024/02/24 06:46:14;;;;;;;;;;;;;;;;;;5028835;28;19917;-66
2024/02/24 06:48:39;;;;;;;;;;;;;;;;;;5028634;28;19921;-67
2024/02/24 06:51:04;;;;;;;;;;;;;;;;;;5025720;28;20059;-66
2024/02/24 06:53:29;;;;;;;;;;;;;;;;;;5029118;28;19917;-66
2024/02/24 06:55:54;;;;;;;;;;;;;;;;;;5027192;28;19918;-66
2024/02/24 06:58:19;;;;;;;;;;;;;;;;;;5027932;28;19917;-66
2024/02/24 07:00:45;;;;;;;;;;;;;;;;;;5028647;28;20393;-67
2024/02/24 07:03:10;;;;;;;;;;;;;;;;;;5028783;28;19924;-65
2024/02/24 07:05:35;;;;;;;;;;;;;;;;;;5028009;28;19921;-67
2024/02/24 07:08:00;;;;;;;;;;;;;;;;;;5026807;28;19975;-67
2024/02/24 07:10:25;;;;;;;;;;;;;;;;;;5027302;28;20049;-66
2024/02/24 07:12:50;;;;;;;;;;;;;;;;;;5024647;28;20333;-66
2024/02/24 07:15:15;;;;;;;;;;;;;;;;;;5028354;28;19921;-67
2024/02/24 07:17:40;;;;;;;;;;;;;;;;;;5027993;28;19921;-66
2024/02/24 07:20:05;;;;;;;;;;;;;;;;;;5027382;28;20344;-67
2024/02/24 07:22:30;;;;;;;;;;;;;;;;;;5028378;28;20400;-66
2024/02/24 07:24:56;;;;;;;;;;;;;;;;;;5028320;28;19928;-67
2024/02/24 07:27:21;;;;;;;;;;;;;;;;;;5027877;28;20372;-67
2024/02/24 07:29:46;;;;;;;;;;;;;;;;;;5032681;28;20504;-66
2024/02/24 07:32:11;;;;;;;;;;;;;;;;;;5027701;28;19982;-67
2024/02/24 07:34:36;;;;;;;;;;;;;;;;;;5028029;28;19970;-67
2024/02/24 07:37:01;;;;;;;;;;;;;;;;;;5027969;28;20289;-67
2024/02/24 07:39:26;;;;;;;;;;;;;;;;;;5028048;28;20020;-67
2024/02/24 07:41:52;;;;;;;;;;;;;;;;;;5027953;28;19917;-67
2024/02/24 07:44:17;;;;;;;;;;;;;;;;;;5027399;28;19976;-67
2024/02/24 07:46:42;;;;;;;;;;;;;;;;;;5027911;28;19986;-67
2024/02/24 07:49:07;;;;;;;;;;;;;;;;;;5027511;28;19925;-67
2024/02/24 07:51:32;;;;;;;;;;;;;;;;;;5028065;28;19917;-67
2024/02/24 07:53:58;;;;;;;;;;;;;;;;;;5026785;28;20266;-67
2024/02/24 07:56:24;;;;;;;;;;;;;;;;;;5028692;28;19921;-67
2024/02/24 07:58:49;;;;;;;;;;;;;;;;;;5029305;28;19921;-67
2024/02/24 08:01:14;;;;;;;;;;;;;;;;;;5027664;28;20381;-67
2024/02/24 08:03:39;;;;;;;;;;;;;;;;;;5027660;28;20355;-66
2024/02/24 08:06:04;;;;;;;;;;;;;;;;;;5027795;28;20484;-67
2024/02/24 08:08:30;;;;;;;;;;;;;;;;;;5026630;28;19995;-66
2024/02/24 08:10:55;;;;;;;;;;;;;;;;;;5027631;28;19917;-66
2024/02/24 08:13:20;;;;;;;;;;;;;;;;;;5026021;28;19917;-66
2024/02/24 08:15:45;;;;;;;;;;;;;;;;;;5027326;28;19956;-66
2024/02/24 08:18:10;;;;;;;;;;;;;;;;;;5026593;28;20334;-67
2024/02/24 08:20:35;;;;;;;;;;;;;;;;;;5027010;28;19921;-66
2024/02/24 08:23:00;;;;;;;;;;;;;;;;;;5027028;28;19921;-66
2024/02/24 08:25:25;;;;;;;;;;;;;;;;;;5026936;28;19979;-66
2024/02/24 08:27:50;;;;;;;;;;;;;;;;;;5026807;28;20365;-66
2024/02/24 08:30:15;;;;;;;;;;;;;;;;;;5022635;28;19925;-66
2024/02/24 08:32:41;;;;;;;;;;;;;;;;;;5027052;28;19917;-66
2024/02/24 08:35:06;;;;;;;;;;;;;;;;;;5027154;28;19924;-66
2024/02/24 08:37:31;;;;;;;;;;;;;;;;;;5027241;28;19967;-66
2024/02/24 08:39:56;;;;;;;;;;;;;;;;;;5021467;28;19966;-66
2024/02/24 08:42:21;;;;;;;;;;;;;;;;;;5025250;28;20308;-66
2024/02/24 08:44:46;;;;;;;;;;;;;;;;;;5026441;28;19921;-66
2024/02/24 08:47:11;;;;;;;;;;;;;;;;;;5027598;28;20023;-66
2024/02/24 08:49:36;;;;;;;;;;;;;;;;;;5026665;28;19925;-66
2024/02/24 08:52:01;;;;;;;;;;;;;;;;;;5026746;28;19940;-67
2024/02/24 08:54:26;;;;;;;;;;;;;;;;;;5025746;28;19924;-66
2024/02/24 08:56:52;;;;;;;;;;;;;;;;;;5027067;28;19928;-66
2024/02/24 08:59:17;;;;;;;;;;;;;;;;;;5027818;28;20374;-66
2024/02/24 09:01:42;;;;;;;;;;;;;;;;;;5026681;28;19953;-66
2024/02/24 09:04:07;;;;;;;;;;;;;;;;;;5025150;28;19925;-67
2024/02/24 09:06:35;;;;;;;;;;;;;;;;;;5025597;28;19922;-66
2024/02/24 09:09:00;;;;;;;;;;;;;;;;;;5026586;28;20176;-66
2024/02/24 09:11:25;;;;;;;;;;;;;;;;;;5028471;28;19922;-66
2024/02/24 09:13:51;;;;;;;;;;;;;;;;;;5027491;28;19944;-66
2024/02/24 09:16:17;;;;;;;;;;;;;;;;;;5032498;28;20333;-66
2024/02/24 09:18:42;;;;;;;;;;;;;;;;;;5030624;28;19928;-66
2024/02/24 09:21:07;;;;;;;;;;;;;;;;;;5031092;28;19921;-66
2024/02/24 09:23:32;;;;;;;;;;;;;;;;;;5033624;28;19921;-66
2024/02/24 09:25:57;;;;;;;;;;;;;;;;;;5033132;28;19928;-66
2024/02/24 09:28:22;;;;;;;;;;;;;;;;;;5031456;28;20341;-66
2024/02/24 09:30:47;;;;;;;;;;;;;;;;;;5032653;28;19925;-66
2024/02/24 09:33:12;;;;;;;;;;;;;;;;;;5032073;28;19964;-66
2024/02/24 09:35:37;;;;;;;;;;;;;;;;;;5031411;28;19925;-66
2024/02/24 09:38:02;;;;;;;;;;;;;;;;;;5032978;28;20374;-66
2024/02/24 09:40:28;;;;;;;;;;;;;;;;;;5032101;28;20389;-66
2024/02/24 09:42:53;;;;;;;;;;;;;;;;;;5032082;28;19971;-66
2024/02/24 09:45:18;;;;;;;;;;;;;;;;;;5032711;28;19921;-66
2024/02/24 09:47:43;;;;;;;;;;;;;;;;;;5032532;28;19921;-66
2024/02/24 09:50:08;;;;;;;;;;;;;;;;;;5029332;28;20393;-66
2024/02/24 09:52:33;;;;;;;;;;;;;;;;;;5032620;28;20020;-66
2024/02/24 09:54:58;;;;;;;;;;;;;;;;;;5030001;28;20324;-66
2024/02/24 09:57:24;;;;;;;;;;;;;;;;;;5029967;28;19925;-66
2024/02/24 09:59:49;;;;;;;;;;;;;;;;;;5031527;28;20255;-66
2024/02/24 10:02:14;;;;;;;;;;;;;;;;;;5031793;28;19925;-66
2024/02/24 10:04:39;;;;;;;;;;;;;;;;;;5030831;28;20348;-66
2024/02/24 10:07:04;;;;;;;;;;;;;;;;;;5032317;28;19933;-66
2024/02/24 10:09:30;;;;;;;;;;;;;;;;;;5032357;28;20438;-66
2024/02/24 10:11:55;;;;;;;;;;;;;;;;;;5032199;28;19921;-66
2024/02/24 10:14:20;;;;;;;;;;;;;;;;;;5031863;28;20056;-67
2024/02/24 10:16:46;;;;;;;;;;;;;;;;;;5032199;28;19971;-66
2024/02/24 10:19:11;;;;;;;;;;;;;;;;;;5032057;28;19921;-67
2024/02/24 10:21:36;;;;;;;;;;;;;;;;;;5032559;28;19928;-67
2024/02/24 10:24:05;;;;;;;;;;;;;;;;;;5031831;28;19921;-68
2024/02/24 10:26:30;;;;;;;;;;;;;;;;;;5028724;28;19921;-68
2024/02/24 10:28:55;;;;;;;;;;;;;;;;;;5028756;28;20024;-68
2024/02/24 10:31:20;;;;;;;;;;;;;;;;;;5029193;28;20000;-68
2024/02/24 10:33:45;;;;;;;;;;;;;;;;;;5023279;28;19929;-68
2024/02/24 10:36:10;;;;;;;;;;;;;;;;;;5027136;28;19947;-68
2024/02/24 10:38:35;;;;;;;;;;;;;;;;;;5025105;28;19921;-67
2024/02/24 10:41:00;;;;;;;;;;;;;;;;;;5027504;28;19921;-67
2024/02/24 10:43:25;;;;;;;;;;;;;;;;;;5029019;28;19925;-67
2024/02/24 10:45:50;;;;;;;;;;;;;;;;;;5029293;28;20439;-67
2024/02/24 10:48:15;;;;;;;;;;;;;;;;;;5027200;28;19933;-66
2024/02/24 10:50:41;;;;;;;;;;;;;;;;;;5028043;28;19929;-67
2024/02/24 10:53:06;;;;;;;;;;;;;;;;;;5023857;28;20290;-66
2024/02/24 10:55:31;;;;;;;;;;;;;;;;;;5027965;28;19996;-66
2024/02/24 10:57:56;;;;;;;;;;;;;;;;;;5024050;28;20037;-67
2024/02/24 11:00:21;;;;;;;;;;;;;;;;;;5021118;28;19936;-67
2024/02/24 11:02:46;;;;;;;;;;;;;;;;;;5024906;28;19961;-66
2024/02/24 11:05:11;;;;;;;;;;;;;;;;;;5027367;28;20300;-66
2024/02/24 11:07:36;;;;;;;;;;;;;;;;;;5027206;28;19947;-66
2024/02/24 11:10:01;;;;;;;;;;;;;;;;;;5028314;28;19998;-67
2024/02/24 11:12:26;;;;;;;;;;;;;;;;;;5028091;28;19983;-66
2024/02/24 11:14:52;;;;;;;;;;;;;;;;;;5028504;28;19928;-67
2024/02/24 11:17:18;;;;;;;;;;;;;;;;;;5028353;28;20305;-66
2024/02/24 11:19:43;;;;;;;;;;;;;;;;;;5025002;28;20389;-69
2024/02/24 11:22:12;;;;;;;;;;;;;;;;;;5027608;28;19929;-69
2024/02/24 11:24:37;;;;;;;;;;;;;;;;;;5029244;28;19921;-68
2024/02/24 11:27:02;;;;;;;;;;;;;;;;;;5028967;28;20013;-67
2024/02/24 11:29:27;;;;;;;;;;;;;;;;;;5026861;28;20007;-67
2024/02/24 11:31:52;;;;;;;;;;;;;;;;;;5025253;28;20414;-68
2024/02/24 11:34:17;;;;;;;;;;;;;;;;;;5022240;28;19928;-67
2024/02/24 11:36:43;;;;;;;;;;;;;;;;;;5026919;28;19921;-67
2024/02/24 11:39:08;;;;;;;;;;;;;;;;;;5027580;28;19925;-67
2024/02/24 11:41:33;;;;;;;;;;;;;;;;;;5022169;28;20178;-67
2024/02/24 11:43:58;;;;;;;;;;;;;;;;;;5027984;28;20192;-67
2024/02/24 11:46:23;;;;;;;;;;;;;;;;;;5027682;28;19917;-67
2024/02/24 11:48:48;;;;;;;;;;;;;;;;;;5027548;28;19925;-67
2024/02/24 11:51:13;;;;;;;;;;;;;;;;;;5026275;28;19925;-67
2024/02/24 11:53:39;;;;;;;;;;;;;;;;;;5026555;28;20351;-67
2024/02/24 11:56:04;;;;;;;;;;;;;;;;;;5025916;28;19967;-67
2024/02/24 11:58:29;;;;;;;;;;;;;;;;;;5026080;28;19921;-67
2024/02/24 12:00:55;;;;;;;;;;;;;;;;;;5027862;28;19917;-67
2024/02/24 12:03:20;;;;;;;;;;;;;;;;;;5027521;28;20389;-67
2024/02/24 12:05:45;;;;;;;;;;;;;;;;;;5027599;28;19932;-67
2024/02/24 12:08:10;;;;;;;;;;;;;;;;;;5026407;28;19961;-67
2024/02/24 12:10:36;;;;;;;;;;;;;;;;;;5027593;28;20034;-67
2024/02/24 12:13:01;;;;;;;;;;;;;;;;;;5042714;28;19917;-67
2024/02/24 12:15:26;;;;;;;;;;;;;;;;;;5027631;28;20004;-67
2024/02/24 12:17:51;;;;;;;;;;;;;;;;;;5027924;28;19917;-67
2024/02/24 12:20:16;;;;;;;;;;;;;;;;;;5026234;28;19925;-67
2024/02/24 12:22:42;;;;;;;;;;;;;;;;;;5027440;28;20287;-67
2024/02/24 12:25:07;;;;;;;;;;;;;;;;;;5026930;28;19929;-67
2024/02/24 12:27:32;;;;;;;;;;;;;;;;;;5026211;28;19917;-67
2024/02/24 12:29:57;;;;;;;;;;;;;;;;;;5026996;28;19964;-67
2024/02/24 12:32:22;;;;;;;;;;;;;;;;;;5025685;28;20000;-67
2024/02/24 12:34:47;;;;;;;;;;;;;;;;;;5022228;28;19924;-67
2024/02/24 12:37:12;;;;;;;;;;;;;;;;;;5027213;28;20299;-67
2024/02/24 12:39:38;;;;;;;;;;;;;;;;;;5028004;28;19921;-67
2024/02/24 12:42:03;;;;;;;;;;;;;;;;;;5025054;28;19992;-67
2024/02/24 12:44:28;;;;;;;;;;;;;;;;;;5024916;28;19925;-67
2024/02/24 12:46:53;;;;;;;;;;;;;;;;;;5025732;28;19917;-67
2024/02/24 12:49:18;;;;;;;;;;;;;;;;;;5025654;28;19971;-67
2024/02/24 12:51:43;;;;;;;;;;;;;;;;;;5027287;28;20004;-67
2024/02/24 12:54:11;;;;;;;;;;;;;;;;;;5026130;28;19928;-67
2024/02/24 12:56:36;;;;;;;;;;;;;;;;;;5026665;28;19975;-67
2024/02/24 12:59:03;;;;;;;;;;;;;;;;;;5026901;28;19925;-67
2024/02/24 13:01:28;;;;;;;;;;;;;;;;;;5026363;28;19917;-67
2024/02/24 13:03:54;;;;;;;;;;;;;;;;;;5026716;28;19918;-67
2024/02/24 13:06:19;;;;;;;;;;;;;;;;;;5026224;28;19921;-67
2024/02/24 13:08:44;;;;;;;;;;;;;;;;;;5026586;28;19921;-67
2024/02/24 13:11:09;;;;;;;;;;;;;;;;;;5033302;28;19925;-67
2024/02/24 13:13:34;;;;;;;;;;;;;;;;;;5026322;28;19949;-67
2024/02/24 13:15:59;;;;;;;;;;;;;;;;;;5026879;28;19917;-67
2024/02/24 13:18:27;;;;;;;;;;;;;;;;;;5024264;28;19936;-67
2024/02/24 13:20:52;;;;;;;;;;;;;;;;;;5026234;28;19921;-67
2024/02/24 13:23:17;;;;;;;;;;;;;;;;;;5026779;28;20495;-67
2024/02/24 13:25:42;;;;;;;;;;;;;;;;;;5026925;28;20008;-68
2024/02/24 13:28:07;;;;;;;;;;;;;;;;;;5025749;28;19998;-68
2024/02/24 13:30:34;;;;;;;;;;;;;;;;;;5026318;28;19917;-68
2024/02/24 13:32:59;;;;;;;;;;;;;;;;;;5026695;28;19952;-68
2024/02/24 13:35:25;;;;;;;;;;;;;;;;;;5028296;28;19964;-68
2024/02/24 13:37:50;;;;;;;;;;;;;;;;;;5027010;28;19964;-68
2024/02/24 13:40:15;;;;;;;;;;;;;;;;;;5026036;28;19945;-68
2024/02/24 13:42:40;;;;;;;;;;;;;;;;;;5026687;28;20079;-68
2024/02/24 13:45:06;;;;;;;;;;;;;;;;;;5026533;28;19917;-67
2024/02/24 13:47:31;;;;;;;;;;;;;;;;;;5026323;28;19925;-68
2024/02/24 13:49:59;;;;;;;;;;;;;;;;;;5025907;28;20619;-67
2024/02/24 13:52:24;;;;;;;;;;;;;;;;;;5023775;28;19956;-67
2024/02/24 13:54:49;;;;;;;;;;;;;;;;;;5026742;28;20036;-68
2024/02/24 13:57:14;;;;;;;;;;;;;;;;;;5026090;28;20398;-67
2024/02/24 13:59:39;;;;;;;;;;;;;;;;;;5026349;28;19918;-68
2024/02/24 14:02:05;;;;;;;;;;;;;;;;;;5029280;28;20440;-71
2024/02/24 14:04:30;;;;;;;;;;;;;;;;;;5029399;28;20024;-68
2024/02/24 14:06:55;;;;;;;;;;;;;;;;;;5029783;28;19921;-67
2024/02/24 14:09:20;;;;;;;;;;;;;;;;;;5029218;28;20412;-68
2024/02/24 14:11:45;;;;;;;;;;;;;;;;;;5029920;28;19917;-68
2024/02/24 14:14:10;;;;;;;;;;;;;;;;;;5029383;28;20397;-68
2024/02/24 14:16:35;;;;;;;;;;;;;;;;;;5029386;28;20051;-68
2024/02/24 14:19:00;;;;;;;;;;;;;;;;;;5029644;28;19917;-68
2024/02/24 14:21:26;;;;;;;;;;;;;;;;;;5029481;28;19921;-68
2024/02/24 14:23:51;;;;;;;;;;;;;;;;;;5029656;28;19929;-68
2024/02/24 14:26:16;;;;;;;;;;;;;;;;;;5028761;28;20152;-68
2024/02/24 14:28:41;;;;;;;;;;;;;;;;;;5025462;28;19921;-68
2024/02/24 14:31:06;;;;;;;;;;;;;;;;;;5028037;28;19928;-68
2024/02/24 14:33:31;;;;;;;;;;;;;;;;;;5028799;28;20349;-68
2024/02/24 14:35:56;;;;;;;;;;;;;;;;;;5029543;28;19917;-69
2024/02/24 14:38:21;;;;;;;;;;;;;;;;;;5028704;28;19917;-68
2024/02/24 14:40:49;;;;;;;;;;;;;;;;;;5029151;28;19913;-68
2024/02/24 14:43:14;;;;;;;;;;;;;;;;;;5029527;28;20293;-68
2024/02/24 14:45:39;;;;;;;;;;;;;;;;;;5030648;28;20336;-67
2024/02/24 14:48:04;;;;;;;;;;;;;;;;;;5024395;28;19921;-68
2024/02/24 14:50:30;;;;;;;;;;;;;;;;;;5029167;28;19928;-68
2024/02/24 14:52:55;;;;;;;;;;;;;;;;;;5029314;28;19921;-68
2024/02/24 14:55:20;;;;;;;;;;;;;;;;;;5028792;28;19963;-68
2024/02/24 14:57:45;;;;;;;;;;;;;;;;;;5028846;28;20020;-68
2024/02/24 15:00:13;;;;;;;;;;;;;;;;;;5028397;28;19921;-69
2024/02/24 15:02:38;;;;;;;;;;;;;;;;;;5025130;28;19917;-68
2024/02/24 15:05:04;;;;;;;;;;;;;;;;;;5029058;28;19943;-68
2024/02/24 15:07:29;;;;;;;;;;;;;;;;;;5028529;28;20286;-68
2024/02/24 15:09:54;;;;;;;;;;;;;;;;;;5028798;28;20389;-68
2024/02/24 15:12:19;;;;;;;;;;;;;;;;;;5027572;28;19971;-69
2024/02/24 15:14:44;;;;;;;;;;;;;;;;;;5027266;28;19928;-68
2024/02/24 15:17:09;;;;;;;;;;;;;;;;;;5022311;28;19932;-67
2024/02/24 15:19:40;;;;;;;;;;;;;;;;;;5028632;28;19917;-67
2024/02/24 15:22:05;;;;;;;;;;;;;;;;;;5028128;28;19932;-70
2024/02/24 15:24:30;;;;;;;;;;;;;;;;;;5028706;28;19917;-67
2024/02/24 15:26:55;;;;;;;;;;;;;;;;;;5028889;28;19924;-68
2024/02/24 15:29:20;;;;;;;;;;;;;;;;;;5033049;28;19928;-67
2024/02/24 15:31:45;;;;;;;;;;;;;;;;;;5028592;28;19924;-68
2024/02/24 15:34:10;;;;;;;;;;;;;;;;;;5027661;28;19944;-69
2024/02/24 15:36:35;;;;;;;;;;;;;;;;;;5027534;28;20037;-67
2024/02/24 15:39:00;;;;;;;;;;;;;;;;;;5026534;28;19918;-68
2024/02/24 15:41:25;;;;;;;;;;;;;;;;;;5027781;28;19921;-67
2024/02/24 15:43:51;;;;;;;;;;;;;;;;;;5028232;28;19917;-68
2024/02/24 15:46:16;;;;;;;;;;;;;;;;;;5026324;28;19924;-69
2024/02/24 15:48:44;;;;;;;;;;;;;;;;;;5027464;28;19925;-68
2024/02/24 15:51:09;;;;;;;;;;;;;;;;;;5028181;28;19917;-68
2024/02/24 15:53:34;;;;;;;;;;;;;;;;;;5027217;28;19917;-68
2024/02/24 15:55:59;;;;;;;;;;;;;;;;;;5026546;28;20320;-68
2024/02/24 15:58:25;;;;;;;;;;;;;;;;;;5026526;28;19995;-68
2024/02/24 16:00:50;;;;;;;;;;;;;;;;;;5027828;28;19925;-68
2024/02/24 16:03:15;;;;;;;;;;;;;;;;;;5026186;28;19925;-68
2024/02/24 16:05:40;;;;;;;;;;;;;;;;;;5027509;28;19917;-68
2024/02/24 16:08:05;;;;;;;;;;;;;;;;;;5027071;28;19944;-68
2024/02/24 16:10:30;;;;;;;;;;;;;;;;;;5027423;28;19924;-68
2024/02/24 16:12:55;;;;;;;;;;;;;;;;;;5028225;28;19921;-68
2024/02/24 16:15:20;;;;;;;;;;;;;;;;;;5028339;28;19948;-68
2024/02/24 16:17:46;;;;;;;;;;;;;;;;;;5025830;28;20020;-68
2024/02/24 16:20:11;;;;;;;;;;;;;;;;;;5024062;28;19921;-69
2024/02/24 16:22:36;;;;;;;;;;;;;;;;;;5023291;28;19925;-68
2024/02/24 16:25:01;;;;;;;;;;;;;;;;;;5026650;28;20404;-67
2024/02/24 16:27:26;;;;;;;;;;;;;;;;;;5024512;28;19932;-73
2024/02/24 16:29:51;;;;;;;;;;;;;;;;;;5024778;28;20020;-73
2024/02/24 16:32:16;;;;;;;;;;;;;;;;;;5025981;28;20385;-73